sensor_id;sensor_type;location;lat;lon;timestamp;P1;durP1;ratioP1;P2;durP2;ratioP2
19869;SDS011;10097;50.862;4.696;2023-07-16T00:00:46;9.50;;;2.85;;
19869;SDS011;10097;50.862;4.696;2023-07-16T00:03:12;8.52;;;2.80;;
19869;SDS011;10097;50.862;4.696;2023-07-16T00:05:39;14.00;;;3.38;;
19869;SDS011;10097;50.862;4.696;2023-07-16T00:08:04;9.00;;;2.95;;
19869;SDS011;10097;50.862;4.696;2023-07-16T00:10:33;11.00;;;3.20;;
19869;SDS011;10097;50.862;4.696;2023-07-16T00:13:05;13.63;;;3.40;;
19869;SDS011;10097;50.862;4.696;2023-07-16T00:15:31;11.05;;;2.83;;
19869;SDS011;10097;50.862;4.696;2023-07-16T00:17:56;8.93;;;3.20;;
19869;SDS011;10097;50.862;4.696;2023-07-16T00:20:22;12.10;;;3.25;;
19869;SDS011;10097;50.862;4.696;2023-07-16T00:22:51;11.93;;;3.33;;
19869;SDS011;10097;50.862;4.696;2023-07-16T00:25:17;8.88;;;2.70;;
19869;SDS011;10097;50.862;4.696;2023-07-16T00:27:43;9.25;;;2.85;;
19869;SDS011;10097;50.862;4.696;2023-07-16T00:30:08;14.43;;;3.15;;
19869;SDS011;10097;50.862;4.696;2023-07-16T00:32:35;10.50;;;2.92;;
19869;SDS011;10097;50.862;4.696;2023-07-16T00:35:01;8.10;;;2.92;;
19869;SDS011;10097;50.862;4.696;2023-07-16T00:37:26;12.65;;;2.80;;
19869;SDS011;10097;50.862;4.696;2023-07-16T00:39:52;11.57;;;2.53;;
19869;SDS011;10097;50.862;4.696;2023-07-16T00:42:18;13.05;;;3.17;;
19869;SDS011;10097;50.862;4.696;2023-07-16T00:44:44;9.65;;;2.90;;
19869;SDS011;10097;50.862;4.696;2023-07-16T00:47:11;13.40;;;2.92;;
19869;SDS011;10097;50.862;4.696;2023-07-16T00:49:37;10.82;;;2.78;;
19869;SDS011;10097;50.862;4.696;2023-07-16T00:52:04;11.48;;;2.72;;
19869;SDS011;10097;50.862;4.696;2023-07-16T00:54:33;10.82;;;2.85;;
19869;SDS011;10097;50.862;4.696;2023-07-16T00:56:59;10.98;;;3.20;;
19869;SDS011;10097;50.862;4.696;2023-07-16T00:59:24;12.88;;;2.92;;
19869;SDS011;10097;50.862;4.696;2023-07-16T01:01:50;8.27;;;2.60;;
19869;SDS011;10097;50.862;4.696;2023-07-16T01:04:16;8.88;;;2.22;;
19869;SDS011;10097;50.862;4.696;2023-07-16T01:06:43;12.15;;;2.58;;
19869;SDS011;10097;50.862;4.696;2023-07-16T01:09:18;15.07;;;3.70;;
19869;SDS011;10097;50.862;4.696;2023-07-16T01:11:45;10.13;;;2.65;;
19869;SDS011;10097;50.862;4.696;2023-07-16T01:14:12;19.27;;;3.30;;
19869;SDS011;10097;50.862;4.696;2023-07-16T01:16:40;11.20;;;2.75;;
19869;SDS011;10097;50.862;4.696;2023-07-16T01:19:06;11.93;;;2.60;;
19869;SDS011;10097;50.862;4.696;2023-07-16T01:21:37;11.13;;;2.85;;
19869;SDS011;10097;50.862;4.696;2023-07-16T01:24:40;10.10;;;3.22;;
19869;SDS011;10097;50.862;4.696;2023-07-16T01:30:14;15.20;;;2.53;;
19869;SDS011;10097;50.862;4.696;2023-07-16T01:32:41;16.50;;;3.53;;
19869;SDS011;10097;50.862;4.696;2023-07-16T01:35:07;13.20;;;2.78;;
19869;SDS011;10097;50.862;4.696;2023-07-16T01:37:34;11.95;;;3.97;;
19869;SDS011;10097;50.862;4.696;2023-07-16T01:39:59;14.60;;;2.95;;
19869;SDS011;10097;50.862;4.696;2023-07-16T01:42:26;14.10;;;4.05;;
19869;SDS011;10097;50.862;4.696;2023-07-16T01:44:51;16.05;;;3.15;;
19869;SDS011;10097;50.862;4.696;2023-07-16T01:49:49;9.45;;;2.80;;
19869;SDS011;10097;50.862;4.696;2023-07-16T01:52:14;14.63;;;3.13;;
19869;SDS011;10097;50.862;4.696;2023-07-16T01:54:40;20.92;;;3.25;;
19869;SDS011;10097;50.862;4.696;2023-07-16T01:57:06;16.17;;;3.15;;
19869;SDS011;10097;50.862;4.696;2023-07-16T01:59:32;13.85;;;3.20;;
19869;SDS011;10097;50.862;4.696;2023-07-16T02:01:57;10.63;;;3.40;;
19869;SDS011;10097;50.862;4.696;2023-07-16T02:04:23;15.40;;;2.90;;
19869;SDS011;10097;50.862;4.696;2023-07-16T02:06:48;11.43;;;2.75;;
19869;SDS011;10097;50.862;4.696;2023-07-16T02:09:14;11.70;;;3.10;;
19869;SDS011;10097;50.862;4.696;2023-07-16T02:11:40;16.80;;;2.65;;
19869;SDS011;10097;50.862;4.696;2023-07-16T02:14:05;9.68;;;2.88;;
19869;SDS011;10097;50.862;4.696;2023-07-16T02:16:31;14.00;;;3.50;;
19869;SDS011;10097;50.862;4.696;2023-07-16T02:18:57;12.48;;;3.35;;
19869;SDS011;10097;50.862;4.696;2023-07-16T02:21:22;17.33;;;3.42;;
19869;SDS011;10097;50.862;4.696;2023-07-16T02:23:48;14.10;;;3.17;;
19869;SDS011;10097;50.862;4.696;2023-07-16T02:26:13;12.70;;;3.42;;
19869;SDS011;10097;50.862;4.696;2023-07-16T02:28:39;13.73;;;3.15;;
19869;SDS011;10097;50.862;4.696;2023-07-16T02:31:05;12.90;;;3.50;;
19869;SDS011;10097;50.862;4.696;2023-07-16T02:33:30;11.90;;;3.70;;
19869;SDS011;10097;50.862;4.696;2023-07-16T02:35:56;12.80;;;3.80;;
19869;SDS011;10097;50.862;4.696;2023-07-16T02:38:22;13.93;;;3.92;;
19869;SDS011;10097;50.862;4.696;2023-07-16T02:40:47;12.57;;;4.25;;
19869;SDS011;10097;50.862;4.696;2023-07-16T02:43:13;12.20;;;4.38;;
19869;SDS011;10097;50.862;4.696;2023-07-16T02:45:40;13.18;;;3.55;;
19869;SDS011;10097;50.862;4.696;2023-07-16T02:48:06;13.48;;;4.68;;
19869;SDS011;10097;50.862;4.696;2023-07-16T02:50:36;12.40;;;4.20;;
19869;SDS011;10097;50.862;4.696;2023-07-16T02:53:06;17.93;;;4.87;;
19869;SDS011;10097;50.862;4.696;2023-07-16T02:55:33;14.00;;;4.37;;
19869;SDS011;10097;50.862;4.696;2023-07-16T02:58:00;15.63;;;4.50;;
19869;SDS011;10097;50.862;4.696;2023-07-16T03:00:29;19.03;;;4.20;;
19869;SDS011;10097;50.862;4.696;2023-07-16T03:02:55;16.60;;;3.70;;
19869;SDS011;10097;50.862;4.696;2023-07-16T03:05:23;23.85;;;5.68;;
19869;SDS011;10097;50.862;4.696;2023-07-16T03:07:50;16.97;;;3.70;;
19869;SDS011;10097;50.862;4.696;2023-07-16T03:10:15;16.80;;;4.82;;
19869;SDS011;10097;50.862;4.696;2023-07-16T03:12:41;13.27;;;4.25;;
19869;SDS011;10097;50.862;4.696;2023-07-16T03:15:07;16.20;;;4.43;;
19869;SDS011;10097;50.862;4.696;2023-07-16T03:17:33;15.70;;;5.68;;
19869;SDS011;10097;50.862;4.696;2023-07-16T03:19:58;10.33;;;3.50;;
19869;SDS011;10097;50.862;4.696;2023-07-16T03:22:24;12.20;;;4.30;;
19869;SDS011;10097;50.862;4.696;2023-07-16T03:24:50;16.73;;;4.15;;
19869;SDS011;10097;50.862;4.696;2023-07-16T03:27:16;13.00;;;4.00;;
19869;SDS011;10097;50.862;4.696;2023-07-16T03:29:42;18.23;;;4.28;;
19869;SDS011;10097;50.862;4.696;2023-07-16T03:32:07;13.43;;;4.27;;
19869;SDS011;10097;50.862;4.696;2023-07-16T03:34:33;13.10;;;4.00;;
19869;SDS011;10097;50.862;4.696;2023-07-16T03:37:00;20.80;;;4.20;;
19869;SDS011;10097;50.862;4.696;2023-07-16T03:39:25;19.00;;;4.37;;
19869;SDS011;10097;50.862;4.696;2023-07-16T03:41:51;13.07;;;4.23;;
19869;SDS011;10097;50.862;4.696;2023-07-16T03:44:17;16.67;;;4.50;;
19869;SDS011;10097;50.862;4.696;2023-07-16T03:46:42;20.97;;;4.73;;
19869;SDS011;10097;50.862;4.696;2023-07-16T03:49:08;17.10;;;4.40;;
19869;SDS011;10097;50.862;4.696;2023-07-16T03:51:34;19.17;;;4.63;;
19869;SDS011;10097;50.862;4.696;2023-07-16T03:53:59;15.53;;;4.33;;
19869;SDS011;10097;50.862;4.696;2023-07-16T03:56:25;13.27;;;4.40;;
19869;SDS011;10097;50.862;4.696;2023-07-16T03:58:51;17.07;;;4.50;;
19869;SDS011;10097;50.862;4.696;2023-07-16T04:01:17;18.23;;;4.40;;
19869;SDS011;10097;50.862;4.696;2023-07-16T04:03:42;20.17;;;4.47;;
19869;SDS011;10097;50.862;4.696;2023-07-16T04:06:08;11.33;;;4.50;;
19869;SDS011;10097;50.862;4.696;2023-07-16T04:08:34;20.63;;;4.60;;
19869;SDS011;10097;50.862;4.696;2023-07-16T04:11:01;16.40;;;4.80;;
19869;SDS011;10097;50.862;4.696;2023-07-16T04:13:28;15.30;;;5.13;;
19869;SDS011;10097;50.862;4.696;2023-07-16T04:15:53;16.00;;;5.90;;
19869;SDS011;10097;50.862;4.696;2023-07-16T04:18:26;15.23;;;4.43;;
19869;SDS011;10097;50.862;4.696;2023-07-16T04:20:52;16.10;;;4.57;;
19869;SDS011;10097;50.862;4.696;2023-07-16T04:23:18;13.67;;;4.43;;
19869;SDS011;10097;50.862;4.696;2023-07-16T04:25:44;13.47;;;4.37;;
19869;SDS011;10097;50.862;4.696;2023-07-16T04:28:10;16.07;;;5.10;;
19869;SDS011;10097;50.862;4.696;2023-07-16T04:30:36;15.33;;;4.70;;
19869;SDS011;10097;50.862;4.696;2023-07-16T04:33:03;16.53;;;5.00;;
19869;SDS011;10097;50.862;4.696;2023-07-16T04:35:29;15.60;;;5.50;;
19869;SDS011;10097;50.862;4.696;2023-07-16T04:37:55;17.25;;;5.22;;
19869;SDS011;10097;50.862;4.696;2023-07-16T04:40:21;14.17;;;4.93;;
19869;SDS011;10097;50.862;4.696;2023-07-16T04:42:46;12.60;;;4.83;;
19869;SDS011;10097;50.862;4.696;2023-07-16T04:45:12;21.63;;;5.40;;
19869;SDS011;10097;50.862;4.696;2023-07-16T04:47:38;18.20;;;4.70;;
19869;SDS011;10097;50.862;4.696;2023-07-16T04:50:03;16.67;;;4.75;;
19869;SDS011;10097;50.862;4.696;2023-07-16T04:52:30;16.53;;;4.50;;
19869;SDS011;10097;50.862;4.696;2023-07-16T04:54:55;21.27;;;5.17;;
19869;SDS011;10097;50.862;4.696;2023-07-16T04:57:21;13.87;;;4.87;;
19869;SDS011;10097;50.862;4.696;2023-07-16T04:59:47;12.83;;;4.80;;
19869;SDS011;10097;50.862;4.696;2023-07-16T05:02:12;17.38;;;5.53;;
19869;SDS011;10097;50.862;4.696;2023-07-16T05:04:40;17.40;;;5.23;;
19869;SDS011;10097;50.862;4.696;2023-07-16T05:07:06;15.15;;;5.03;;
19869;SDS011;10097;50.862;4.696;2023-07-16T05:09:32;13.63;;;5.05;;
19869;SDS011;10097;50.862;4.696;2023-07-16T05:11:57;18.40;;;5.47;;
19869;SDS011;10097;50.862;4.696;2023-07-16T05:14:27;15.48;;;5.35;;
19869;SDS011;10097;50.862;4.696;2023-07-16T05:16:54;16.58;;;5.38;;
19869;SDS011;10097;50.862;4.696;2023-07-16T05:19:20;21.60;;;5.97;;
19869;SDS011;10097;50.862;4.696;2023-07-16T05:21:46;18.08;;;6.03;;
19869;SDS011;10097;50.862;4.696;2023-07-16T05:24:11;16.98;;;5.47;;
19869;SDS011;10097;50.862;4.696;2023-07-16T05:26:37;16.60;;;5.72;;
19869;SDS011;10097;50.862;4.696;2023-07-16T05:29:03;15.43;;;5.88;;
19869;SDS011;10097;50.862;4.696;2023-07-16T05:31:29;16.92;;;5.97;;
19869;SDS011;10097;50.862;4.696;2023-07-16T05:33:55;16.45;;;5.68;;
19869;SDS011;10097;50.862;4.696;2023-07-16T05:36:20;16.20;;;5.85;;
19869;SDS011;10097;50.862;4.696;2023-07-16T05:38:46;22.58;;;6.18;;
19869;SDS011;10097;50.862;4.696;2023-07-16T05:41:12;18.77;;;5.80;;
19869;SDS011;10097;50.862;4.696;2023-07-16T05:43:37;16.70;;;6.00;;
19869;SDS011;10097;50.862;4.696;2023-07-16T05:46:03;12.68;;;5.22;;
19869;SDS011;10097;50.862;4.696;2023-07-16T05:48:30;21.65;;;5.95;;
19869;SDS011;10097;50.862;4.696;2023-07-16T05:50:56;17.27;;;5.95;;
19869;SDS011;10097;50.862;4.696;2023-07-16T05:53:22;18.30;;;6.10;;
19869;SDS011;10097;50.862;4.696;2023-07-16T05:55:48;14.00;;;6.18;;
19869;SDS011;10097;50.862;4.696;2023-07-16T05:58:17;18.13;;;6.00;;
19869;SDS011;10097;50.862;4.696;2023-07-16T06:00:42;14.63;;;5.75;;
19869;SDS011;10097;50.862;4.696;2023-07-16T06:03:08;15.80;;;6.22;;
19869;SDS011;10097;50.862;4.696;2023-07-16T06:05:34;19.33;;;6.75;;
19869;SDS011;10097;50.862;4.696;2023-07-16T06:08:01;21.67;;;6.00;;
19869;SDS011;10097;50.862;4.696;2023-07-16T06:10:27;16.08;;;5.30;;
19869;SDS011;10097;50.862;4.696;2023-07-16T06:12:53;22.27;;;6.10;;
19869;SDS011;10097;50.862;4.696;2023-07-16T06:15:18;20.90;;;6.07;;
19869;SDS011;10097;50.862;4.696;2023-07-16T06:17:44;17.17;;;6.32;;
19869;SDS011;10097;50.862;4.696;2023-07-16T06:20:10;16.13;;;6.38;;
19869;SDS011;10097;50.862;4.696;2023-07-16T06:22:36;18.85;;;6.25;;
19869;SDS011;10097;50.862;4.696;2023-07-16T06:25:02;16.20;;;5.93;;
19869;SDS011;10097;50.862;4.696;2023-07-16T06:27:29;16.75;;;6.18;;
19869;SDS011;10097;50.862;4.696;2023-07-16T06:29:55;18.92;;;6.20;;
19869;SDS011;10097;50.862;4.696;2023-07-16T06:32:21;18.52;;;6.55;;
19869;SDS011;10097;50.862;4.696;2023-07-16T06:34:46;17.10;;;5.80;;
19869;SDS011;10097;50.862;4.696;2023-07-16T06:37:12;17.27;;;6.35;;
19869;SDS011;10097;50.862;4.696;2023-07-16T06:39:38;14.95;;;6.18;;
19869;SDS011;10097;50.862;4.696;2023-07-16T06:42:03;17.83;;;6.80;;
19869;SDS011;10097;50.862;4.696;2023-07-16T06:44:29;18.08;;;5.75;;
19869;SDS011;10097;50.862;4.696;2023-07-16T06:46:55;18.58;;;6.22;;
19869;SDS011;10097;50.862;4.696;2023-07-16T06:49:21;15.38;;;6.35;;
19869;SDS011;10097;50.862;4.696;2023-07-16T06:51:47;20.15;;;6.75;;
19869;SDS011;10097;50.862;4.696;2023-07-16T06:54:12;19.60;;;6.40;;
19869;SDS011;10097;50.862;4.696;2023-07-16T06:56:38;18.23;;;6.43;;
19869;SDS011;10097;50.862;4.696;2023-07-16T06:59:04;18.10;;;6.70;;
19869;SDS011;10097;50.862;4.696;2023-07-16T07:01:30;23.63;;;7.40;;
19869;SDS011;10097;50.862;4.696;2023-07-16T07:03:55;18.50;;;6.47;;
19869;SDS011;10097;50.862;4.696;2023-07-16T07:06:21;20.92;;;6.43;;
19869;SDS011;10097;50.862;4.696;2023-07-16T07:08:47;24.70;;;6.75;;
19869;SDS011;10097;50.862;4.696;2023-07-16T07:11:13;20.08;;;6.32;;
19869;SDS011;10097;50.862;4.696;2023-07-16T07:13:38;19.42;;;6.40;;
19869;SDS011;10097;50.862;4.696;2023-07-16T07:16:04;18.17;;;6.60;;
19869;SDS011;10097;50.862;4.696;2023-07-16T07:18:30;16.55;;;6.10;;
19869;SDS011;10097;50.862;4.696;2023-07-16T07:20:55;14.13;;;5.63;;
19869;SDS011;10097;50.862;4.696;2023-07-16T07:23:21;14.70;;;6.05;;
19869;SDS011;10097;50.862;4.696;2023-07-16T07:25:50;15.30;;;6.07;;
19869;SDS011;10097;50.862;4.696;2023-07-16T07:28:16;14.40;;;6.15;;
19869;SDS011;10097;50.862;4.696;2023-07-16T07:30:43;15.10;;;5.82;;
19869;SDS011;10097;50.862;4.696;2023-07-16T07:33:09;17.33;;;5.70;;
19869;SDS011;10097;50.862;4.696;2023-07-16T07:35:34;16.00;;;5.80;;
19869;SDS011;10097;50.862;4.696;2023-07-16T07:38:00;16.25;;;5.50;;
19869;SDS011;10097;50.862;4.696;2023-07-16T07:40:26;12.60;;;5.70;;
19869;SDS011;10097;50.862;4.696;2023-07-16T07:42:51;18.67;;;6.13;;
19869;SDS011;10097;50.862;4.696;2023-07-16T07:45:17;14.20;;;5.25;;
19869;SDS011;10097;50.862;4.696;2023-07-16T07:47:43;15.20;;;6.10;;
19869;SDS011;10097;50.862;4.696;2023-07-16T07:50:09;13.77;;;6.18;;
19869;SDS011;10097;50.862;4.696;2023-07-16T07:52:34;22.13;;;6.30;;
19869;SDS011;10097;50.862;4.696;2023-07-16T07:55:00;19.88;;;8.25;;
19869;SDS011;10097;50.862;4.696;2023-07-16T07:57:26;14.57;;;5.30;;
19869;SDS011;10097;50.862;4.696;2023-07-16T07:59:51;14.63;;;5.10;;
19869;SDS011;10097;50.862;4.696;2023-07-16T08:02:21;13.60;;;5.80;;
19869;SDS011;10097;50.862;4.696;2023-07-16T08:04:49;14.02;;;6.53;;
19869;SDS011;10097;50.862;4.696;2023-07-16T08:07:16;16.85;;;6.38;;
19869;SDS011;10097;50.862;4.696;2023-07-16T08:09:42;14.40;;;5.57;;
19869;SDS011;10097;50.862;4.696;2023-07-16T08:12:08;13.88;;;5.80;;
19869;SDS011;10097;50.862;4.696;2023-07-16T08:14:34;13.20;;;5.18;;
19869;SDS011;10097;50.862;4.696;2023-07-16T08:17:00;16.30;;;5.35;;
19869;SDS011;10097;50.862;4.696;2023-07-16T08:19:25;13.30;;;5.05;;
19869;SDS011;10097;50.862;4.696;2023-07-16T08:21:51;17.02;;;5.38;;
19869;SDS011;10097;50.862;4.696;2023-07-16T08:24:17;18.90;;;5.97;;
19869;SDS011;10097;50.862;4.696;2023-07-16T08:26:42;14.73;;;5.47;;
19869;SDS011;10097;50.862;4.696;2023-07-16T08:29:08;12.50;;;5.20;;
19869;SDS011;10097;50.862;4.696;2023-07-16T08:31:34;15.45;;;5.32;;
19869;SDS011;10097;50.862;4.696;2023-07-16T08:33:59;12.57;;;4.75;;
19869;SDS011;10097;50.862;4.696;2023-07-16T08:36:25;13.57;;;5.03;;
19869;SDS011;10097;50.862;4.696;2023-07-16T08:38:51;15.38;;;4.70;;
19869;SDS011;10097;50.862;4.696;2023-07-16T08:41:17;15.60;;;5.60;;
19869;SDS011;10097;50.862;4.696;2023-07-16T08:43:43;14.43;;;5.05;;
19869;SDS011;10097;50.862;4.696;2023-07-16T08:46:11;15.45;;;4.75;;
19869;SDS011;10097;50.862;4.696;2023-07-16T08:48:36;13.57;;;4.97;;
19869;SDS011;10097;50.862;4.696;2023-07-16T08:51:02;12.68;;;4.88;;
19869;SDS011;10097;50.862;4.696;2023-07-16T08:53:29;11.90;;;4.40;;
19869;SDS011;10097;50.862;4.696;2023-07-16T08:55:55;15.23;;;4.47;;
19869;SDS011;10097;50.862;4.696;2023-07-16T08:58:22;16.02;;;5.10;;
19869;SDS011;10097;50.862;4.696;2023-07-16T09:00:49;13.65;;;4.40;;
19869;SDS011;10097;50.862;4.696;2023-07-16T09:03:16;13.13;;;4.50;;
19869;SDS011;10097;50.862;4.696;2023-07-16T09:05:42;12.88;;;4.70;;
19869;SDS011;10097;50.862;4.696;2023-07-16T09:08:09;11.45;;;4.10;;
19869;SDS011;10097;50.862;4.696;2023-07-16T09:10:36;10.10;;;3.92;;
19869;SDS011;10097;50.862;4.696;2023-07-16T09:13:02;9.43;;;3.75;;
19869;SDS011;10097;50.862;4.696;2023-07-16T09:15:28;12.80;;;4.65;;
19869;SDS011;10097;50.862;4.696;2023-07-16T09:17:54;11.10;;;4.07;;
19869;SDS011;10097;50.862;4.696;2023-07-16T09:20:20;12.50;;;4.45;;
19869;SDS011;10097;50.862;4.696;2023-07-16T09:22:48;17.50;;;4.05;;
19869;SDS011;10097;50.862;4.696;2023-07-16T09:25:15;11.73;;;3.67;;
19869;SDS011;10097;50.862;4.696;2023-07-16T09:27:41;9.77;;;3.60;;
19869;SDS011;10097;50.862;4.696;2023-07-16T09:30:14;10.68;;;3.85;;
19869;SDS011;10097;50.862;4.696;2023-07-16T09:32:40;10.90;;;3.88;;
19869;SDS011;10097;50.862;4.696;2023-07-16T09:35:09;10.43;;;3.95;;
19869;SDS011;10097;50.862;4.696;2023-07-16T09:37:36;12.23;;;4.07;;
19869;SDS011;10097;50.862;4.696;2023-07-16T09:40:10;10.63;;;4.00;;
19869;SDS011;10097;50.862;4.696;2023-07-16T09:42:37;13.75;;;3.90;;
19869;SDS011;10097;50.862;4.696;2023-07-16T09:45:04;11.00;;;3.85;;
19869;SDS011;10097;50.862;4.696;2023-07-16T09:47:31;12.23;;;4.18;;
19869;SDS011;10097;50.862;4.696;2023-07-16T09:49:57;13.55;;;3.78;;
19869;SDS011;10097;50.862;4.696;2023-07-16T09:52:23;14.85;;;4.35;;
19869;SDS011;10097;50.862;4.696;2023-07-16T09:54:52;11.98;;;4.15;;
19869;SDS011;10097;50.862;4.696;2023-07-16T09:57:20;10.63;;;3.95;;
19869;SDS011;10097;50.862;4.696;2023-07-16T09:59:48;16.08;;;4.25;;
19869;SDS011;10097;50.862;4.696;2023-07-16T10:02:15;10.48;;;4.10;;
19869;SDS011;10097;50.862;4.696;2023-07-16T10:04:41;13.18;;;3.88;;
19869;SDS011;10097;50.862;4.696;2023-07-16T10:07:07;15.98;;;5.28;;
19869;SDS011;10097;50.862;4.696;2023-07-16T10:09:50;11.70;;;4.32;;
19869;SDS011;10097;50.862;4.696;2023-07-16T10:12:17;16.00;;;4.57;;
19869;SDS011;10097;50.862;4.696;2023-07-16T10:14:54;14.48;;;4.28;;
19869;SDS011;10097;50.862;4.696;2023-07-16T10:17:24;12.23;;;4.72;;
19869;SDS011;10097;50.862;4.696;2023-07-16T10:19:54;8.63;;;3.85;;
19869;SDS011;10097;50.862;4.696;2023-07-16T10:22:30;10.00;;;4.25;;
19869;SDS011;10097;50.862;4.696;2023-07-16T10:24:58;11.90;;;3.63;;
19869;SDS011;10097;50.862;4.696;2023-07-16T10:27:28;12.10;;;4.18;;
19869;SDS011;10097;50.862;4.696;2023-07-16T10:29:54;14.15;;;4.40;;
19869;SDS011;10097;50.862;4.696;2023-07-16T10:32:20;12.40;;;4.05;;
19869;SDS011;10097;50.862;4.696;2023-07-16T10:34:46;10.60;;;3.90;;
19869;SDS011;10097;50.862;4.696;2023-07-16T10:37:11;12.27;;;3.95;;
19869;SDS011;10097;50.862;4.696;2023-07-16T10:39:45;9.63;;;3.67;;
19869;SDS011;10097;50.862;4.696;2023-07-16T10:42:17;11.90;;;3.70;;
19869;SDS011;10097;50.862;4.696;2023-07-16T10:44:45;10.23;;;4.40;;
19869;SDS011;10097;50.862;4.696;2023-07-16T10:47:35;9.82;;;3.67;;
19869;SDS011;10097;50.862;4.696;2023-07-16T10:50:05;10.90;;;3.95;;
19869;SDS011;10097;50.862;4.696;2023-07-16T10:52:33;15.43;;;4.47;;
19869;SDS011;10097;50.862;4.696;2023-07-16T10:54:59;11.20;;;3.80;;
19869;SDS011;10097;50.862;4.696;2023-07-16T10:57:25;13.52;;;4.10;;
19869;SDS011;10097;50.862;4.696;2023-07-16T10:59:52;11.50;;;3.75;;
19869;SDS011;10097;50.862;4.696;2023-07-16T11:02:20;11.07;;;3.80;;
19869;SDS011;10097;50.862;4.696;2023-07-16T11:04:48;13.38;;;4.25;;
19869;SDS011;10097;50.862;4.696;2023-07-16T11:07:14;12.32;;;4.15;;
19869;SDS011;10097;50.862;4.696;2023-07-16T11:09:41;14.70;;;4.07;;
19869;SDS011;10097;50.862;4.696;2023-07-16T11:12:12;11.32;;;3.55;;
19869;SDS011;10097;50.862;4.696;2023-07-16T11:14:42;10.55;;;3.47;;
19869;SDS011;10097;50.862;4.696;2023-07-16T11:17:10;10.15;;;3.30;;
19869;SDS011;10097;50.862;4.696;2023-07-16T11:19:37;9.88;;;3.63;;
19869;SDS011;10097;50.862;4.696;2023-07-16T11:22:03;10.15;;;3.30;;
19869;SDS011;10097;50.862;4.696;2023-07-16T11:24:41;14.23;;;4.10;;
19869;SDS011;10097;50.862;4.696;2023-07-16T11:27:17;14.07;;;4.35;;
19869;SDS011;10097;50.862;4.696;2023-07-16T11:29:54;11.75;;;3.42;;
19869;SDS011;10097;50.862;4.696;2023-07-16T11:34:55;13.77;;;3.97;;
19869;SDS011;10097;50.862;4.696;2023-07-16T11:37:21;11.07;;;3.38;;
19869;SDS011;10097;50.862;4.696;2023-07-16T11:39:48;12.98;;;3.28;;
19869;SDS011;10097;50.862;4.696;2023-07-16T11:42:17;11.35;;;3.83;;
19869;SDS011;10097;50.862;4.696;2023-07-16T11:44:48;12.07;;;3.63;;
19869;SDS011;10097;50.862;4.696;2023-07-16T11:47:14;13.13;;;3.72;;
19869;SDS011;10097;50.862;4.696;2023-07-16T11:49:40;11.15;;;3.42;;
19869;SDS011;10097;50.862;4.696;2023-07-16T11:52:06;7.57;;;3.15;;
19869;SDS011;10097;50.862;4.696;2023-07-16T11:54:32;9.48;;;3.25;;
19869;SDS011;10097;50.862;4.696;2023-07-16T11:56:58;10.85;;;3.78;;
19869;SDS011;10097;50.862;4.696;2023-07-16T11:59:24;14.40;;;2.97;;
19869;SDS011;10097;50.862;4.696;2023-07-16T12:01:49;9.75;;;2.95;;
19869;SDS011;10097;50.862;4.696;2023-07-16T12:04:16;8.60;;;3.10;;
19869;SDS011;10097;50.862;4.696;2023-07-16T12:06:42;8.57;;;3.22;;
19869;SDS011;10097;50.862;4.696;2023-07-16T12:09:08;7.80;;;3.08;;
19869;SDS011;10097;50.862;4.696;2023-07-16T12:11:33;8.25;;;3.10;;
19869;SDS011;10097;50.862;4.696;2023-07-16T12:13:59;12.57;;;3.28;;
19869;SDS011;10097;50.862;4.696;2023-07-16T12:16:25;10.13;;;3.25;;
19869;SDS011;10097;50.862;4.696;2023-07-16T12:18:50;10.80;;;3.38;;
19869;SDS011;10097;50.862;4.696;2023-07-16T12:21:16;9.95;;;4.00;;
19869;SDS011;10097;50.862;4.696;2023-07-16T12:23:42;10.05;;;3.13;;
19869;SDS011;10097;50.862;4.696;2023-07-16T12:26:07;11.45;;;3.22;;
19869;SDS011;10097;50.862;4.696;2023-07-16T12:28:33;10.70;;;3.55;;
19869;SDS011;10097;50.862;4.696;2023-07-16T12:30:59;8.18;;;3.03;;
19869;SDS011;10097;50.862;4.696;2023-07-16T12:33:25;14.57;;;3.78;;
19869;SDS011;10097;50.862;4.696;2023-07-16T12:35:50;9.95;;;3.22;;
19869;SDS011;10097;50.862;4.696;2023-07-16T12:38:17;12.00;;;2.85;;
19869;SDS011;10097;50.862;4.696;2023-07-16T12:40:42;10.95;;;3.38;;
19869;SDS011;10097;50.862;4.696;2023-07-16T12:43:08;8.95;;;3.45;;
19869;SDS011;10097;50.862;4.696;2023-07-16T12:45:34;7.63;;;2.95;;
19869;SDS011;10097;50.862;4.696;2023-07-16T12:47:59;10.00;;;3.08;;
19869;SDS011;10097;50.862;4.696;2023-07-16T12:50:25;12.80;;;3.95;;
19869;SDS011;10097;50.862;4.696;2023-07-16T12:52:52;8.15;;;3.17;;
19869;SDS011;10097;50.862;4.696;2023-07-16T12:55:18;8.98;;;3.15;;
19869;SDS011;10097;50.862;4.696;2023-07-16T12:57:44;12.68;;;3.60;;
19869;SDS011;10097;50.862;4.696;2023-07-16T13:00:10;14.05;;;3.25;;
19869;SDS011;10097;50.862;4.696;2023-07-16T13:02:36;10.05;;;3.13;;
19869;SDS011;10097;50.862;4.696;2023-07-16T13:05:02;8.02;;;2.65;;
19869;SDS011;10097;50.862;4.696;2023-07-16T13:07:28;10.00;;;3.47;;
19869;SDS011;10097;50.862;4.696;2023-07-16T13:09:55;12.82;;;3.00;;
19869;SDS011;10097;50.862;4.696;2023-07-16T13:12:21;8.38;;;3.15;;
19869;SDS011;10097;50.862;4.696;2023-07-16T13:14:46;9.25;;;3.28;;
19869;SDS011;10097;50.862;4.696;2023-07-16T13:17:12;10.40;;;3.05;;
19869;SDS011;10097;50.862;4.696;2023-07-16T13:19:40;9.23;;;2.88;;
19869;SDS011;10097;50.862;4.696;2023-07-16T13:22:05;8.88;;;2.72;;
19869;SDS011;10097;50.862;4.696;2023-07-16T13:24:31;11.40;;;3.30;;
19869;SDS011;10097;50.862;4.696;2023-07-16T13:26:57;9.80;;;3.45;;
19869;SDS011;10097;50.862;4.696;2023-07-16T13:29:22;10.80;;;3.05;;
19869;SDS011;10097;50.862;4.696;2023-07-16T13:31:49;9.45;;;3.05;;
19869;SDS011;10097;50.862;4.696;2023-07-16T13:34:15;7.55;;;2.60;;
19869;SDS011;10097;50.862;4.696;2023-07-16T13:36:41;7.05;;;2.60;;
19869;SDS011;10097;50.862;4.696;2023-07-16T13:39:06;7.53;;;2.92;;
19869;SDS011;10097;50.862;4.696;2023-07-16T13:41:33;7.40;;;2.55;;
19869;SDS011;10097;50.862;4.696;2023-07-16T13:43:58;6.60;;;2.70;;
19869;SDS011;10097;50.862;4.696;2023-07-16T13:46:24;6.78;;;2.10;;
19869;SDS011;10097;50.862;4.696;2023-07-16T13:48:49;8.23;;;3.03;;
19869;SDS011;10097;50.862;4.696;2023-07-16T13:51:15;8.25;;;2.80;;
19869;SDS011;10097;50.862;4.696;2023-07-16T13:53:41;7.75;;;2.55;;
19869;SDS011;10097;50.862;4.696;2023-07-16T13:56:07;5.47;;;2.08;;
19869;SDS011;10097;50.862;4.696;2023-07-16T13:58:33;11.35;;;2.83;;
19869;SDS011;10097;50.862;4.696;2023-07-16T14:01:00;10.63;;;2.75;;
19869;SDS011;10097;50.862;4.696;2023-07-16T14:03:25;6.90;;;2.47;;
19869;SDS011;10097;50.862;4.696;2023-07-16T14:05:51;9.93;;;2.92;;
19869;SDS011;10097;50.862;4.696;2023-07-16T14:08:17;8.05;;;2.70;;
19869;SDS011;10097;50.862;4.696;2023-07-16T14:10:42;11.88;;;2.78;;
19869;SDS011;10097;50.862;4.696;2023-07-16T14:13:08;9.40;;;2.33;;
19869;SDS011;10097;50.862;4.696;2023-07-16T14:15:34;7.95;;;2.90;;
19869;SDS011;10097;50.862;4.696;2023-07-16T14:18:00;9.00;;;2.88;;
19869;SDS011;10097;50.862;4.696;2023-07-16T14:20:26;9.10;;;2.78;;
19869;SDS011;10097;50.862;4.696;2023-07-16T14:22:51;9.02;;;3.28;;
19869;SDS011;10097;50.862;4.696;2023-07-16T14:25:17;7.45;;;2.50;;
19869;SDS011;10097;50.862;4.696;2023-07-16T14:27:43;6.93;;;2.30;;
19869;SDS011;10097;50.862;4.696;2023-07-16T14:30:09;8.85;;;2.65;;
19869;SDS011;10097;50.862;4.696;2023-07-16T14:32:35;7.22;;;2.40;;
19869;SDS011;10097;50.862;4.696;2023-07-16T14:35:02;9.40;;;2.50;;
19869;SDS011;10097;50.862;4.696;2023-07-16T14:37:28;7.60;;;2.58;;
19869;SDS011;10097;50.862;4.696;2023-07-16T14:39:54;8.65;;;2.65;;